createdAt,value
2023-04-05T00:01:13.969Z,98802.66
2023-04-05T00:03:42.739Z,98793.78
2023-04-05T00:06:13.434Z,98797.78
2023-04-05T00:08:41.199Z,98792.69
2023-04-05T00:11:07.713Z,98786.00
2023-04-05T00:13:34.217Z,98782.44
2023-04-05T00:16:01.551Z,98783.50
2023-04-05T00:18:28.243Z,98774.13
2023-04-05T00:20:54.695Z,98730.78
2023-04-05T00:23:23.145Z,98776.75
2023-04-05T00:25:50.715Z,98774.06
2023-04-05T00:28:17.248Z,98771.63
2023-04-05T00:30:44.831Z,98763.38
2023-04-05T00:33:15.177Z,98764.34
2023-04-05T00:35:41.904Z,98771.16
2023-04-05T00:38:08.493Z,98761.63
2023-04-05T00:40:36.362Z,98773.63
2023-04-05T00:43:03.104Z,98772.81
2023-04-05T00:45:29.619Z,98771.03
2023-04-05T00:47:56.757Z,98771.28
2023-04-05T00:50:24.265Z,98771.44
2023-04-05T00:52:51.745Z,98765.19
2023-04-05T00:55:19.475Z,98762.59
2023-04-05T00:57:46.033Z,98764.81
2023-04-05T01:00:15.190Z,98768.81
2023-04-05T01:02:49.793Z,98765.94
2023-04-05T01:05:42.565Z,98756.41
2023-04-05T01:08:20.593Z,98753.94
2023-04-05T01:10:55.010Z,98748.56
2023-04-05T01:13:23.040Z,98757.00
2023-04-05T01:15:49.561Z,98752.56
2023-04-05T01:18:16.138Z,98748.84
2023-04-05T01:20:53.011Z,98747.91
2023-04-05T01:23:44.098Z,98746.66
2023-04-05T01:26:39.968Z,98749.94
2023-04-05T01:29:34.937Z,98743.91
2023-04-05T01:32:43.488Z,98748.72
2023-04-05T01:35:33.009Z,98736.31
2023-04-05T01:38:04.908Z,98737.13
2023-04-05T01:40:32.878Z,98734.09
2023-04-05T01:43:03.139Z,98733.53
2023-04-05T01:45:29.664Z,98726.13
2023-04-05T01:47:56.291Z,98731.06
2023-04-05T01:50:23.172Z,98738.25
2023-04-05T01:52:50.714Z,98739.34
2023-04-05T01:55:17.272Z,98720.06
2023-04-05T01:57:43.956Z,98723.09
2023-04-05T02:00:12.224Z,98681.78
2023-04-05T02:02:41.615Z,98737.81
2023-04-05T02:05:09.370Z,98731.22
2023-04-05T02:07:36.288Z,98726.94
2023-04-05T02:10:03.874Z,98734.78
2023-04-05T02:12:30.532Z,98731.47
2023-04-05T02:14:58.684Z,98663.84
2023-04-05T02:17:25.809Z,98729.44
2023-04-05T02:19:53.414Z,98732.72
2023-04-05T02:22:20.257Z,98718.66
2023-04-05T02:24:46.889Z,98727.50
2023-04-05T02:27:13.648Z,98729.84
2023-04-05T02:29:40.732Z,98722.53
2023-04-05T02:32:07.879Z,98719.50
2023-04-05T02:34:34.458Z,98710.97
2023-04-05T02:37:01.951Z,98707.41
2023-04-05T02:39:29.680Z,98714.56
2023-04-05T02:41:56.920Z,98715.63
2023-04-05T02:44:23.789Z,98711.53
2023-04-05T02:46:53.493Z,98715.38
2023-04-05T02:49:27.036Z,98715.38
2023-04-05T02:51:58.724Z,98710.41
2023-04-05T02:54:25.650Z,98723.06
2023-04-05T02:56:58.244Z,98709.03
2023-04-05T02:59:29.039Z,98700.25
2023-04-05T03:01:56.096Z,98706.72
2023-04-05T03:04:27.080Z,98698.03
2023-04-05T03:07:02.771Z,98645.13
2023-04-05T03:09:34.501Z,98699.25
2023-04-05T03:12:06.006Z,98703.22
2023-04-05T03:14:36.734Z,98692.09
2023-04-05T03:17:03.482Z,98650.88
2023-04-05T03:19:38.650Z,98693.84
2023-04-05T03:22:16.105Z,98695.22
2023-04-05T03:24:43.670Z,98706.50
2023-04-05T03:27:15.318Z,98700.03
2023-04-05T03:30:01.170Z,98700.16
2023-04-05T03:32:29.484Z,98707.66
2023-04-05T03:35:04.247Z,98705.31
2023-04-05T03:37:32.795Z,98654.78
2023-04-05T03:40:02.563Z,98706.75
2023-04-05T03:42:29.838Z,98671.78
2023-04-05T03:44:56.494Z,98694.94
2023-04-05T03:47:23.390Z,98693.28
2023-04-05T03:49:52.212Z,98696.97
2023-04-05T03:52:18.711Z,98696.03
2023-04-05T03:54:45.763Z,98688.88
2023-04-05T03:57:16.909Z,98701.53
2023-04-05T03:59:44.730Z,98698.34
2023-04-05T04:02:12.802Z,98700.84
2023-04-05T04:04:39.365Z,98699.06
2023-04-05T04:07:05.961Z,98689.97
2023-04-05T04:09:32.665Z,98677.34
2023-04-05T04:12:06.588Z,98688.22
2023-04-05T04:14:36.576Z,98685.31
2023-04-05T04:17:37.596Z,98684.72
2023-04-05T04:20:16.167Z,98693.09
2023-04-05T04:22:49.898Z,98682.19
2023-04-05T04:25:31.509Z,98679.78
2023-04-05T04:28:25.326Z,98678.03
2023-04-05T04:31:13.901Z,98684.91
2023-04-05T04:34:13.549Z,98680.25
2023-04-05T04:37:01.532Z,98684.47
2023-04-05T04:39:47.682Z,98695.50
2023-04-05T04:42:33.783Z,98693.00
2023-04-05T04:45:07.007Z,98689.97
2023-04-05T04:47:49.859Z,98686.72
2023-04-05T04:50:35.986Z,98686.31
2023-04-05T04:53:03.096Z,98689.38
2023-04-05T04:55:30.515Z,98691.75
2023-04-05T04:57:57.017Z,98689.59
2023-04-05T05:00:24.650Z,98699.19
2023-04-05T05:02:53.018Z,98696.03
2023-04-05T05:05:23.202Z,98696.72
2023-04-05T05:07:50.911Z,98700.63
2023-04-05T05:10:18.965Z,98694.03
2023-04-05T05:12:45.903Z,98705.19
2023-04-05T05:15:14.922Z,98702.47
2023-04-05T05:17:41.740Z,98667.16
2023-04-05T05:20:11.113Z,98705.19
2023-04-05T05:22:40.304Z,98708.31
2023-04-05T05:25:09.039Z,98713.72
2023-04-05T05:27:35.865Z,98710.22
2023-04-05T05:30:02.450Z,98713.16
2023-04-05T05:32:30.743Z,98701.13
2023-04-05T05:34:57.617Z,98708.19
2023-04-05T05:37:32.093Z,98703.28
2023-04-05T05:39:59.282Z,98704.06
2023-04-05T05:42:27.080Z,98640.03
2023-04-05T05:44:54.197Z,98710.56
2023-04-05T05:47:20.963Z,98709.47
2023-04-05T05:49:49.442Z,98697.97
2023-04-05T05:52:16.216Z,98642.91
2023-04-05T05:54:42.753Z,98684.56
2023-04-05T05:57:09.257Z,98689.16
2023-04-05T05:59:36.069Z,98695.34
2023-04-05T06:02:02.657Z,98687.88
2023-04-05T06:04:29.513Z,98701.38
2023-04-05T06:06:58.246Z,98695.34
2023-04-05T06:09:25.579Z,98698.28
2023-04-05T06:11:56.290Z,98666.50
2023-04-05T06:14:23.578Z,98697.97
2023-04-05T06:16:50.512Z,98709.56
2023-04-05T06:19:16.972Z,98704.63
2023-04-05T06:21:43.758Z,98693.06
2023-04-05T06:24:10.347Z,98693.53
2023-04-05T06:26:36.930Z,98691.78
2023-04-05T06:29:03.401Z,98685.44
2023-04-05T06:31:35.658Z,98698.91
2023-04-05T06:34:02.653Z,98695.97
2023-04-05T06:36:32.460Z,98688.25
2023-04-05T06:38:59.568Z,98692.00
2023-04-05T06:41:30.267Z,98686.00
2023-04-05T06:43:56.980Z,98649.59
2023-04-05T06:46:24.678Z,98688.97
2023-04-05T06:48:52.042Z,98676.38
2023-04-05T06:51:18.961Z,98688.47
2023-04-05T06:53:45.771Z,98684.91
2023-04-05T06:56:12.427Z,98687.94
2023-04-05T06:58:38.890Z,98685.75
2023-04-05T07:01:06.063Z,98682.97
2023-04-05T07:03:32.831Z,98650.81
2023-04-05T07:06:00.559Z,98683.38
2023-04-05T07:08:28.990Z,98684.59
2023-04-05T07:10:55.649Z,98671.94
2023-04-05T07:13:23.863Z,98644.84
2023-04-05T07:15:51.432Z,98683.63
2023-04-05T07:18:19.539Z,98683.25
2023-04-05T07:20:49.420Z,98675.38
2023-04-05T07:23:16.613Z,98686.63
2023-04-05T07:25:44.980Z,98673.81
2023-04-05T07:28:12.328Z,98677.94
2023-04-05T07:30:38.956Z,98665.06
2023-04-05T07:33:05.606Z,98675.28
2023-04-05T07:35:33.776Z,98675.09
2023-04-05T07:38:00.425Z,98666.88
2023-04-05T07:40:28.064Z,98661.72
2023-04-05T07:42:54.851Z,98667.88
2023-04-05T07:45:21.816Z,98669.31
2023-04-05T07:47:48.388Z,98670.53
2023-04-05T07:50:15.637Z,98663.53
2023-04-05T07:52:42.663Z,98670.47
2023-04-05T07:55:10.056Z,98666.31
2023-04-05T07:57:36.897Z,98669.13
2023-04-05T08:00:05.432Z,98669.69
2023-04-05T08:02:39.974Z,98671.91
2023-04-05T08:05:07.219Z,98676.13
2023-04-05T08:07:33.842Z,98671.84
2023-04-05T08:10:01.009Z,98676.56
2023-04-05T08:12:28.049Z,98666.25
2023-04-05T08:14:54.611Z,98669.81
2023-04-05T08:17:21.313Z,98667.78
2023-04-05T08:19:49.335Z,98667.69
2023-04-05T08:22:17.975Z,98655.53
2023-04-05T08:24:44.740Z,98649.09
2023-04-05T08:27:11.411Z,98656.13
2023-04-05T08:29:38.586Z,98649.28
2023-04-05T08:32:05.176Z,98645.56
2023-04-05T08:34:31.663Z,98645.84
2023-04-05T08:37:00.024Z,98604.75
2023-04-05T08:39:26.988Z,98645.63
2023-04-05T08:42:29.567Z,98642.22
2023-04-05T08:44:58.108Z,98646.09
2023-04-05T08:47:25.434Z,98648.56
2023-04-05T08:49:52.202Z,98643.91
2023-04-05T08:52:19.351Z,98653.09
2023-04-05T08:54:46.102Z,98652.44
2023-04-05T08:57:18.965Z,98652.03
2023-04-05T08:59:46.451Z,98655.41
2023-04-05T09:02:19.177Z,98652.09
2023-04-05T09:04:48.499Z,98651.69
2023-04-05T09:07:15.500Z,98606.31
2023-04-05T09:09:49.085Z,98653.13
2023-04-05T09:12:15.840Z,98624.34
2023-04-05T09:14:44.153Z,98643.91
2023-04-05T09:17:11.293Z,98653.59
2023-04-05T09:19:38.082Z,98647.25
2023-04-05T09:22:06.975Z,98653.38
2023-04-05T09:24:44.218Z,98649.28
2023-04-05T09:27:14.360Z,98652.47
2023-04-05T09:29:51.085Z,98650.97
2023-04-05T09:32:20.586Z,98644.13
2023-04-05T09:34:48.209Z,98644.28
2023-04-05T09:37:27.964Z,98640.22
2023-04-05T09:40:03.871Z,98602.41
2023-04-05T09:42:34.210Z,98644.97
2023-04-05T09:45:02.684Z,98649.91
2023-04-05T09:47:36.728Z,98644.31
2023-04-05T09:50:15.763Z,98643.53
2023-04-05T09:52:43.506Z,98647.56
2023-04-05T09:55:10.704Z,98636.44
2023-04-05T09:57:38.964Z,98637.69
2023-04-05T10:00:09.988Z,98635.03
2023-04-05T10:02:41.226Z,98628.41
2023-04-05T10:05:13.901Z,98625.31
2023-04-05T10:07:41.336Z,98625.09
2023-04-05T10:10:12.697Z,98628.72
2023-04-05T10:12:41.576Z,98617.72
2023-04-05T10:15:09.015Z,98612.44
2023-04-05T10:18:08.260Z,98609.97
2023-04-05T10:20:40.753Z,98606.31
2023-04-05T10:23:12.767Z,98601.34
2023-04-05T10:25:53.023Z,98596.81
2023-04-05T10:28:48.252Z,98602.84
2023-04-05T10:31:39.013Z,98605.97
2023-04-05T10:34:16.763Z,98601.00
2023-04-05T10:36:58.328Z,98601.81
2023-04-05T10:39:40.209Z,98602.16
2023-04-05T10:42:13.566Z,98590.56
2023-04-05T10:44:42.939Z,98595.63
2023-04-05T10:47:14.250Z,98590.00
2023-04-05T10:49:45.676Z,98596.50
2023-04-05T10:52:13.306Z,98604.41
2023-04-05T10:54:40.641Z,98597.53
2023-04-05T10:57:10.486Z,98597.13
2023-04-05T10:59:42.883Z,98598.00
2023-04-05T11:02:10.369Z,98582.78
2023-04-05T11:04:41.511Z,98590.97
2023-04-05T11:07:16.008Z,98578.47
2023-04-05T11:09:53.288Z,98574.78
2023-04-05T11:12:19.856Z,98575.94
2023-04-05T11:14:46.388Z,98577.78
2023-04-05T11:17:29.154Z,98527.78
2023-04-05T11:20:05.436Z,98567.06
2023-04-05T11:22:34.442Z,98560.56
2023-04-05T11:25:03.407Z,98570.44
2023-04-05T11:27:38.116Z,98571.50
2023-04-05T11:30:06.515Z,98575.91
2023-04-05T11:32:43.876Z,98576.38
2023-04-05T11:35:14.842Z,98563.25
2023-04-05T11:37:54.198Z,98567.03
2023-04-05T11:40:29.099Z,98552.91
2023-04-05T11:43:10.774Z,98557.59
2023-04-05T11:45:39.235Z,98549.03
2023-04-05T11:48:13.924Z,98538.72
2023-04-05T11:50:42.393Z,98550.25
2023-04-05T11:53:16.620Z,98550.22
2023-04-05T11:55:48.697Z,98545.63
2023-04-05T11:58:21.611Z,98537.09
2023-04-05T12:01:01.685Z,98540.63
2023-04-05T12:03:30.025Z,98548.13
2023-04-05T12:06:02.676Z,98536.72
2023-04-05T12:08:42.370Z,98535.94
2023-04-05T12:11:11.602Z,98531.84
2023-04-05T12:13:39.525Z,98536.34
2023-04-05T12:16:07.787Z,98537.75
2023-04-05T12:18:37.071Z,98535.91
2023-04-05T12:21:08.279Z,98528.97
2023-04-05T12:23:36.702Z,98520.78
2023-04-05T12:26:04.269Z,98524.41
2023-04-05T12:28:53.393Z,98527.88
2023-04-05T12:31:42.975Z,98515.47
2023-04-05T12:34:10.675Z,98511.38
2023-04-05T12:36:38.816Z,98488.19
2023-04-05T12:39:10.075Z,98517.66
2023-04-05T12:41:37.568Z,98515.47
2023-04-05T12:44:15.705Z,98507.69
2023-04-05T12:46:47.079Z,98504.00
2023-04-05T12:49:16.699Z,98482.22
2023-04-05T12:51:47.224Z,98499.94
2023-04-05T12:54:15.373Z,98506.44
2023-04-05T12:56:42.560Z,98509.88
2023-04-05T12:59:09.244Z,98499.53
2023-04-05T13:01:35.810Z,98497.06
2023-04-05T13:04:15.461Z,98495.84
2023-04-05T13:06:43.505Z,98468.16
2023-04-05T13:09:10.015Z,98495.84
2023-04-05T13:11:36.499Z,98496.84
2023-04-05T13:14:03.285Z,98494.16
2023-04-05T13:16:29.883Z,98488.47
2023-04-05T13:18:56.321Z,98480.72
2023-04-05T13:21:22.923Z,98445.34
2023-04-05T13:23:49.593Z,98487.47
2023-04-05T13:26:16.077Z,98480.50
2023-04-05T13:28:42.913Z,98470.28
2023-04-05T13:31:09.502Z,98470.47
2023-04-05T13:33:35.939Z,98462.50
2023-04-05T13:36:02.384Z,98471.28
2023-04-05T13:38:29.018Z,98457.78
2023-04-05T13:40:55.681Z,98455.34
2023-04-05T13:43:23.214Z,98453.50
2023-04-05T13:45:50.030Z,98450.00
2023-04-05T13:48:17.438Z,98452.06
2023-04-05T13:50:44.164Z,98445.84
2023-04-05T13:53:10.874Z,98438.66
2023-04-05T13:55:38.348Z,98436.88
2023-04-05T13:58:05.535Z,98431.47
2023-04-05T14:00:32.566Z,98433.03
2023-04-05T14:02:59.364Z,98433.91
2023-04-05T14:05:26.158Z,98438.84
2023-04-05T14:07:52.720Z,98433.72
2023-04-05T14:10:21.697Z,98435.53
2023-04-05T14:12:48.263Z,98441.81
2023-04-05T14:15:15.599Z,98438.41
2023-04-05T14:17:42.283Z,98447.19
2023-04-05T14:20:09.316Z,98447.88
2023-04-05T14:22:36.470Z,98433.88
2023-04-05T14:25:04.407Z,98431.84
2023-04-05T14:27:30.975Z,98431.41
2023-04-05T14:29:57.962Z,98422.66
2023-04-05T14:32:25.688Z,98424.91
2023-04-05T14:34:52.594Z,98408.75
2023-04-05T14:37:19.479Z,98429.16
2023-04-05T14:39:47.231Z,98427.09
2023-04-05T14:42:14.125Z,98421.03
2023-04-05T14:44:41.025Z,98415.91
2023-04-05T14:47:07.571Z,98415.09
2023-04-05T14:49:34.051Z,98402.63
2023-04-05T14:52:00.814Z,98402.22
2023-04-05T14:54:27.338Z,98412.03
2023-04-05T14:56:53.818Z,98407.94
2023-04-05T14:59:20.598Z,98401.59
2023-04-05T15:01:47.406Z,98396.06
2023-04-05T15:04:14.573Z,98398.13
2023-04-05T15:06:42.310Z,98401.38
2023-04-05T15:09:09.120Z,98402.22
2023-04-05T15:11:40.120Z,98397.31
2023-04-05T15:14:08.563Z,98398.53
2023-04-05T15:16:38.101Z,98399.16
2023-04-05T15:19:04.670Z,98394.47
2023-04-05T15:21:31.278Z,98394.25
2023-04-05T15:23:58.060Z,98394.44
2023-04-05T15:26:26.743Z,98388.75
2023-04-05T15:28:53.344Z,98391.97
2023-04-05T15:31:20.038Z,98385.47
2023-04-05T15:33:46.498Z,98380.56
2023-04-05T15:36:13.310Z,98391.38
2023-04-05T15:38:39.812Z,98384.63
2023-04-05T15:41:08.231Z,98390.97
2023-04-05T15:43:34.785Z,98386.28
2023-04-05T15:46:01.370Z,98387.28
2023-04-05T15:48:28.229Z,98384.66
2023-04-05T15:50:55.024Z,98385.06
2023-04-05T15:53:21.702Z,98348.47
2023-04-05T15:55:48.194Z,98383.00
2023-04-05T15:58:14.858Z,98386.06
2023-04-05T16:00:42.520Z,98386.25
2023-04-05T16:03:09.130Z,98387.69
2023-04-05T16:05:36.286Z,98377.69
2023-04-05T16:08:02.958Z,98367.88
2023-04-05T16:10:29.519Z,98335.97
2023-04-05T16:12:56.141Z,98375.25
2023-04-05T16:15:22.960Z,98378.84
2023-04-05T16:17:49.530Z,98373.00
2023-04-05T16:20:17.485Z,98383.19
2023-04-05T16:22:45.461Z,98366.41
2023-04-05T16:25:12.484Z,98372.75
2023-04-05T16:27:39.102Z,98379.06
2023-04-05T16:30:06.569Z,98365.81
2023-04-05T16:32:33.665Z,98368.66
2023-04-05T16:35:03.455Z,98369.69
2023-04-05T16:37:30.545Z,98373.16
2023-04-05T16:39:56.979Z,98363.78
2023-04-05T16:42:23.789Z,98370.06
2023-04-05T16:44:50.471Z,98372.09
2023-04-05T16:47:17.290Z,98337.59
2023-04-05T16:49:43.783Z,98367.22
2023-04-05T16:52:10.345Z,98370.88
2023-04-05T16:54:36.775Z,98368.66
2023-04-05T16:57:03.316Z,98360.88
2023-04-05T16:59:29.848Z,98337.38
2023-04-05T17:01:56.526Z,98374.38
2023-04-05T17:04:22.957Z,98365.97
2023-04-05T17:06:49.851Z,98367.41
2023-04-05T17:09:16.965Z,98363.72
2023-04-05T17:11:43.533Z,98336.31
2023-04-05T17:14:10.264Z,98363.28
2023-04-05T17:16:37.363Z,98364.28
2023-04-05T17:19:04.059Z,98365.28
2023-04-05T17:21:31.294Z,98365.72
2023-04-05T17:23:58.167Z,98368.16
2023-04-05T17:26:24.767Z,98370.59
2023-04-05T17:28:53.086Z,98364.28
2023-04-05T17:31:19.612Z,98376.78
2023-04-05T17:33:48.307Z,98373.94
2023-04-05T17:36:16.613Z,98337.53
2023-04-05T17:38:43.566Z,98378.81
2023-04-05T17:41:10.526Z,98381.63
2023-04-05T17:43:37.402Z,98382.91
2023-04-05T17:46:04.395Z,98337.09
2023-04-05T17:48:33.144Z,98387.44
2023-04-05T17:51:05.176Z,98377.44
2023-04-05T17:53:31.630Z,98376.00
2023-04-05T17:55:59.235Z,98375.38
2023-04-05T17:58:26.628Z,98378.00
2023-04-05T18:00:53.183Z,98383.50
2023-04-05T18:03:20.235Z,98382.69
2023-04-05T18:05:54.904Z,98386.56
2023-04-05T18:08:22.681Z,98390.84
2023-04-05T18:10:58.189Z,98386.34
2023-04-05T18:13:25.965Z,98392.44
2023-04-05T18:15:57.347Z,98392.22
2023-04-05T18:18:24.857Z,98401.97
2023-04-05T18:20:52.318Z,98392.91
2023-04-05T18:23:22.481Z,98403.66
2023-04-05T18:25:49.865Z,98411.22
2023-04-05T18:28:22.734Z,98407.50
2023-04-05T18:30:51.155Z,98419.66
2023-04-05T18:33:17.814Z,98412.91
2023-04-05T18:35:50.906Z,98406.44
2023-04-05T18:38:18.008Z,98426.63
2023-04-05T18:40:44.559Z,98416.88
2023-04-05T18:43:12.235Z,98422.41
2023-04-05T18:45:39.207Z,98433.19
2023-04-05T18:48:06.178Z,98434.09
2023-04-05T18:50:33.667Z,98420.56
2023-04-05T18:53:00.499Z,98422.81
2023-04-05T18:55:26.879Z,98433.41
2023-04-05T18:57:54.441Z,98438.13
2023-04-05T19:00:21.430Z,98441.66
2023-04-05T19:02:47.991Z,98434.88
2023-04-05T19:05:14.802Z,98437.13
2023-04-05T19:07:41.336Z,98440.94
2023-04-05T19:10:08.632Z,98442.81
2023-04-05T19:12:35.349Z,98447.06
2023-04-05T19:15:02.218Z,98446.16
2023-04-05T19:17:28.956Z,98447.72
2023-04-05T19:19:55.704Z,98440.47
2023-04-05T19:22:22.973Z,98446.81
2023-04-05T19:24:49.482Z,98449.19
2023-04-05T19:27:16.184Z,98449.47
2023-04-05T19:29:42.792Z,98439.38
2023-04-05T19:32:09.376Z,98455.03
2023-04-05T19:34:38.079Z,98449.47
2023-04-05T19:37:04.854Z,98442.75
2023-04-05T19:39:33.587Z,98449.47
2023-04-05T19:42:00.245Z,98459.22
2023-04-05T19:44:46.619Z,98450.97
2023-04-05T19:47:13.757Z,98451.81
2023-04-05T19:49:42.526Z,98452.69
2023-04-05T19:52:12.869Z,98448.69
2023-04-05T19:54:42.693Z,98447.13
2023-04-05T19:57:09.960Z,98449.78
2023-04-05T19:59:36.619Z,98451.91
2023-04-05T20:02:13.248Z,98447.19
2023-04-05T20:04:42.376Z,98449.34
2023-04-05T20:07:08.893Z,98448.44
2023-04-05T20:09:37.673Z,98446.28
2023-04-05T20:12:06.235Z,98446.47
2023-04-05T20:14:45.693Z,98449.44
2023-04-05T20:17:13.224Z,98419.59
2023-04-05T20:19:42.391Z,98443.09
2023-04-05T20:22:10.356Z,98452.91
2023-04-05T20:24:39.931Z,98448.38
2023-04-05T20:27:06.602Z,98446.47
2023-04-05T20:29:33.953Z,98443.63
2023-04-05T20:32:01.876Z,98455.84
2023-04-05T20:34:31.281Z,98454.25
2023-04-05T20:37:00.132Z,98452.84
2023-04-05T20:39:27.325Z,98453.34
2023-04-05T20:41:55.616Z,98454.06
2023-04-05T20:44:23.561Z,98437.59
2023-04-05T20:46:51.897Z,98444.19
2023-04-05T20:49:19.840Z,98443.50
2023-04-05T20:51:50.732Z,98446.88
2023-04-05T20:54:17.944Z,98445.25
2023-04-05T20:56:44.400Z,98444.78
2023-04-05T20:59:11.698Z,98450.53
2023-04-05T21:01:38.712Z,98422.81
2023-04-05T21:04:05.666Z,98444.63
2023-04-05T21:06:32.157Z,98442.78
2023-04-05T21:08:58.776Z,98407.19
2023-04-05T21:11:26.635Z,98436.78
2023-04-05T21:13:54.291Z,98438.63
2023-04-05T21:16:21.113Z,98443.22
2023-04-05T21:18:47.602Z,98447.03
2023-04-05T21:21:14.190Z,98441.47
2023-04-05T21:23:40.683Z,98438.00
2023-04-05T21:26:07.538Z,98447.06
2023-04-05T21:28:34.060Z,98442.75
2023-04-05T21:31:01.198Z,98436.84
2023-04-05T21:33:27.678Z,98448.03
2023-04-05T21:35:54.385Z,98442.44
2023-04-05T21:38:20.941Z,98447.38
2023-04-05T21:40:49.902Z,98446.38
2023-04-05T21:43:16.466Z,98440.13
2023-04-05T21:45:43.286Z,98446.53
2023-04-05T21:48:09.885Z,98444.09
2023-04-05T21:50:37.130Z,98446.56
2023-04-05T21:53:05.285Z,98444.75
2023-04-05T21:55:31.792Z,98450.00
2023-04-05T21:57:58.425Z,98446.88
2023-04-05T22:00:25.324Z,98453.81
2023-04-05T22:02:51.979Z,98451.66
2023-04-05T22:07:48.789Z,98444.91
2023-04-05T22:10:15.435Z,98439.78
2023-04-05T22:12:41.918Z,98439.09
2023-04-05T22:15:08.692Z,98438.13
2023-04-05T22:17:36.228Z,98442.25
2023-04-05T22:20:03.048Z,98437.16
2023-04-05T22:22:31.920Z,98398.00
2023-04-05T22:24:58.807Z,98443.84
2023-04-05T22:27:25.791Z,98444.34
2023-04-05T22:29:54.285Z,98437.63
2023-04-05T22:32:21.698Z,98389.78
2023-04-05T22:34:48.994Z,98439.78
2023-04-05T22:37:15.837Z,98392.09
2023-04-05T22:39:42.299Z,98442.88
2023-04-05T22:42:08.851Z,98441.69
2023-04-05T22:44:36.736Z,98444.97
2023-04-05T22:47:03.609Z,98435.13
2023-04-05T22:49:30.706Z,98436.78
2023-04-05T22:51:57.669Z,98434.63
2023-04-05T22:54:24.137Z,98433.31
2023-04-05T22:56:51.482Z,98440.03
2023-04-05T22:59:18.101Z,98425.63
2023-04-05T23:01:44.729Z,98431.50
2023-04-05T23:04:11.434Z,98428.19
2023-04-05T23:06:37.988Z,98419.63
2023-04-05T23:09:05.816Z,98427.81
2023-04-05T23:11:33.036Z,98421.53
2023-04-05T23:13:59.542Z,98381.22
2023-04-05T23:16:26.485Z,98419.59
2023-04-05T23:18:53.215Z,98425.44
2023-04-05T23:21:19.741Z,98427.09
2023-04-05T23:23:46.180Z,98429.34
2023-04-05T23:26:12.826Z,98427.41
2023-04-05T23:28:40.846Z,98415.56
2023-04-05T23:31:07.409Z,98418.88
2023-04-05T23:33:33.985Z,98420.50
2023-04-05T23:36:01.267Z,98418.53
2023-04-05T23:38:27.837Z,98420.16
2023-04-05T23:40:54.618Z,98419.97
2023-04-05T23:43:21.408Z,98419.50
2023-04-05T23:45:47.899Z,98419.81
2023-04-05T23:48:14.584Z,98417.34
2023-04-05T23:50:41.194Z,98416.22
2023-04-05T23:53:07.767Z,98412.63
2023-04-05T23:55:40.025Z,98415.47
2023-04-05T23:58:07.844Z,98406.75
